Time;durP1;ratioP1;P1;durP2;ratioP2;P2;SDS_P1;SDS_P2;PMS_P1;PMS_P2;Temp;Humidity;BMP_temperature;BMP_pressure;BME280_temperature;BME280_humidity;BME280_pressure;Samples;Min_cycle;Max_cycle;Signal;HPM_P1;HPM_P2
2023/04/30 00:02:24;;;;;;;24.80;22.17;;;11.50;99.90;;;;;;5032089;28;20176;-75
2023/04/30 00:04:50;;;;;;;23.40;21.00;;;11.50;99.90;;;;;;5031602;28;20166;-76
2023/04/30 00:07:15;;;;;;;19.80;17.80;;;11.40;99.90;;;;;;5030621;28;20209;-76
2023/04/30 00:09:41;;;;;;;20.30;18.17;;;11.40;99.90;;;;;;5030561;28;21127;-76
2023/04/30 00:12:07;;;;;;;22.57;17.70;;;11.40;99.90;;;;;;5014068;28;20232;-75
2023/04/30 00:14:34;;;;;;;18.43;16.47;;;11.40;99.90;;;;;;5033985;28;20181;-76
2023/04/30 00:16:59;;;;;;;16.88;14.73;;;11.40;99.90;;;;;;5013743;28;20601;-76
2023/04/30 00:19:25;;;;;;;16.43;14.70;;;11.40;99.90;;;;;;5014170;28;20284;-76
2023/04/30 00:21:51;;;;;;;17.47;15.70;;;11.40;99.90;;;;;;4997075;28;20200;-75
2023/04/30 00:24:17;;;;;;;17.33;15.57;;;11.40;99.90;;;;;;5013949;28;20569;-75
2023/04/30 00:26:42;;;;;;;15.50;13.90;;;11.40;99.90;;;;;;5030710;28;20189;-75
2023/04/30 00:29:09;;;;;;;18.50;14.13;;;11.40;99.90;;;;;;5014101;28;20209;-75
2023/04/30 00:31:35;;;;;;;16.67;14.75;;;11.40;99.90;;;;;;5013208;28;20274;-75
2023/04/30 00:34:01;;;;;;;16.27;14.60;;;11.40;99.90;;;;;;5014027;28;20678;-75
2023/04/30 00:36:26;;;;;;;15.73;14.20;;;11.40;99.90;;;;;;5013689;28;20547;-75
2023/04/30 00:38:53;;;;;;;16.65;14.95;;;11.30;99.90;;;;;;4996952;28;20213;-75
2023/04/30 00:41:20;;;;;;;18.20;14.43;;;11.30;99.90;;;;;;4981121;28;20172;-75
2023/04/30 00:43:46;;;;;;;18.02;16.23;;;11.30;99.90;;;;;;5013344;28;20645;-76
2023/04/30 00:46:11;;;;;;;17.67;15.80;;;11.30;99.90;;;;;;5013364;28;20200;-75
2023/04/30 00:48:38;;;;;;;17.40;15.53;;;11.20;99.90;;;;;;5013657;28;20937;-75
2023/04/30 00:51:04;;;;;;;15.20;13.73;;;11.20;99.90;;;;;;5015876;28;20604;-75
2023/04/30 00:53:31;;;;;;;15.68;14.05;;;11.20;99.90;;;;;;5013319;28;20677;-75
2023/04/30 00:55:57;;;;;;;19.25;16.92;;;11.20;99.90;;;;;;5013665;28;20193;-76
2023/04/30 00:58:25;;;;;;;19.38;17.33;;;11.10;99.90;;;;;;5012709;28;20194;-75
2023/04/30 01:00:51;;;;;;;18.90;16.90;;;11.10;99.90;;;;;;5013347;28;20185;-75
2023/04/30 01:03:16;;;;;;;18.00;15.88;;;11.00;99.90;;;;;;4986460;28;20235;-75
2023/04/30 01:05:52;;;;;;;16.52;14.82;;;11.00;99.90;;;;;;5030669;28;20192;-75
2023/04/30 01:08:19;;;;;;;18.25;14.10;;;11.00;99.90;;;;;;5013772;28;20180;-76
2023/04/30 01:10:52;;;;;;;14.65;13.10;;;10.90;99.90;;;;;;5004904;28;20178;-76
2023/04/30 01:13:24;;;;;;;16.02;14.40;;;10.90;99.90;;;;;;4995463;28;20181;-76
2023/04/30 01:15:59;;;;;;;14.48;12.98;;;10.90;99.90;;;;;;5013724;28;20201;-75
2023/04/30 01:18:34;;;;;;;19.08;15.68;;;10.90;99.90;;;;;;4997271;28;20185;-76
2023/04/30 01:21:04;;;;;;;20.83;18.10;;;10.80;99.90;;;;;;4997098;28;20173;-76
2023/04/30 01:23:45;;;;;;;18.90;16.50;;;10.80;99.90;;;;;;4997218;28;20714;-76
2023/04/30 01:26:52;;;;;;;19.17;16.38;;;10.80;99.90;;;;;;4997517;28;20193;-75
2023/04/30 01:29:19;;;;;;;16.67;14.88;;;10.70;99.90;;;;;;4981884;28;20227;-75
2023/04/30 01:31:45;;;;;;;18.48;16.67;;;10.70;99.90;;;;;;5023822;28;20588;-75
2023/04/30 01:34:11;;;;;;;18.83;16.83;;;10.70;99.90;;;;;;4997052;28;20264;-75
2023/04/30 01:36:58;;;;;;;18.73;16.40;;;10.60;99.90;;;;;;5012877;28;20639;-75
2023/04/30 01:39:53;;;;;;;19.27;17.17;;;10.60;99.90;;;;;;5031049;28;20563;-75
2023/04/30 01:42:32;;;;;;;19.50;16.05;;;10.60;99.90;;;;;;4975510;28;20181;-75
2023/04/30 01:45:00;;;;;;;17.85;15.73;;;10.50;99.90;;;;;;5030696;28;20685;-76
2023/04/30 01:47:27;;;;;;;20.80;16.10;;;10.50;99.90;;;;;;4983193;28;20217;-75
2023/04/30 01:50:15;;;;;;;17.40;15.00;;;10.40;99.90;;;;;;4980699;28;20181;-75
2023/04/30 01:52:57;;;;;;;16.92;15.05;;;10.40;99.90;;;;;;5012603;28;20186;-76
2023/04/30 01:55:26;;;;;;;16.67;15.00;;;10.40;99.90;;;;;;5013039;28;20220;-76
2023/04/30 01:57:57;;;;;;;20.45;18.27;;;10.30;99.90;;;;;;5012300;28;20165;-76
2023/04/30 02:00:29;;;;;;;18.38;16.42;;;10.30;99.90;;;;;;5013165;28;20170;-76
2023/04/30 02:02:55;;;;;;;18.58;16.67;;;10.20;99.90;;;;;;5012929;28;20598;-76
2023/04/30 02:05:21;;;;;;;19.37;17.17;;;10.20;99.90;;;;;;5015168;28;20229;-76
2023/04/30 02:07:48;;;;;;;20.50;18.30;;;10.20;99.90;;;;;;4996474;28;20683;-76
2023/04/30 02:10:16;;;;;;;20.40;16.85;;;10.10;99.90;;;;;;4997563;28;20174;-76
2023/04/30 02:12:42;;;;;;;21.13;17.30;;;10.10;99.90;;;;;;5016333;28;20533;-75
2023/04/30 02:15:09;;;;;;;21.87;18.47;;;10.10;99.90;;;;;;4999647;28;20176;-76
2023/04/30 02:17:35;;;;;;;22.10;18.92;;;10.00;99.90;;;;;;5015856;28;20209;-76
2023/04/30 02:20:00;;;;;;;22.53;18.50;;;10.00;99.90;;;;;;4999215;28;20197;-76
2023/04/30 02:22:26;;;;;;;23.67;19.77;;;10.00;99.90;;;;;;5015487;28;20596;-76
2023/04/30 02:24:54;;;;;;;21.30;19.00;;;10.00;99.90;;;;;;5033331;28;20173;-77
2023/04/30 02:27:21;;;;;;;22.00;18.58;;;9.90;99.90;;;;;;5032427;28;20198;-77
2023/04/30 02:29:47;;;;;;;21.77;19.42;;;9.90;99.90;;;;;;5015823;28;20177;-77
2023/04/30 02:32:13;;;;;;;21.50;16.67;;;9.90;99.90;;;;;;5032542;28;20184;-77
2023/04/30 02:34:39;;;;;;;20.55;16.83;;;9.80;99.90;;;;;;5032588;28;20602;-76
2023/04/30 02:37:05;;;;;;;19.52;17.40;;;9.80;99.90;;;;;;5015496;28;20240;-77
2023/04/30 02:39:32;;;;;;;18.83;16.05;;;9.80;99.90;;;;;;5032448;28;20296;-77
2023/04/30 02:41:57;;;;;;;19.85;17.75;;;9.80;99.90;;;;;;5036039;28;20177;-76
2023/04/30 02:44:23;;;;;;;21.13;17.67;;;9.80;99.90;;;;;;5032416;28;20166;-76
2023/04/30 02:46:49;;;;;;;22.30;19.30;;;9.70;99.90;;;;;;5015305;28;20305;-77
2023/04/30 02:49:15;;;;;;;20.90;18.70;;;9.70;99.90;;;;;;5015996;28;20173;-77
2023/04/30 02:51:41;;;;;;;26.07;17.67;;;9.70;99.90;;;;;;5032078;28;20600;-76
2023/04/30 02:54:07;;;;;;;23.27;19.97;;;9.70;99.90;;;;;;5032582;28;20583;-77
2023/04/30 02:56:33;;;;;;;23.47;21.03;;;9.60;99.90;;;;;;5015585;28;20616;-77
2023/04/30 02:58:59;;;;;;;25.15;21.20;;;9.60;99.90;;;;;;5032870;28;20619;-76
2023/04/30 03:01:25;;;;;;;24.17;19.30;;;9.60;99.90;;;;;;5015682;28;20173;-76
2023/04/30 03:03:51;;;;;;;21.00;17.00;;;9.60;99.90;;;;;;4999209;28;20726;-76
2023/04/30 03:06:17;;;;;;;19.20;16.97;;;9.60;99.90;;;;;;5031643;28;20248;-77
2023/04/30 03:08:43;;;;;;;22.45;16.83;;;9.50;99.90;;;;;;5031855;28;20178;-77
2023/04/30 03:11:08;;;;;;;16.23;13.90;;;9.50;99.90;;;;;;5015135;28;20633;-77
2023/04/30 03:13:34;;;;;;;14.80;13.20;;;9.50;99.90;;;;;;5031485;28;20170;-77
2023/04/30 03:16:03;;;;;;;14.57;13.07;;;9.50;99.90;;;;;;5031489;28;20699;-77
2023/04/30 03:18:29;;;;;;;14.68;13.18;;;9.40;99.90;;;;;;5006226;28;20201;-77
2023/04/30 03:20:56;;;;;;;14.98;13.48;;;9.40;99.90;;;;;;4998082;28;20184;-76
2023/04/30 03:23:22;;;;;;;13.93;12.50;;;9.40;99.90;;;;;;5014354;28;20172;-77
2023/04/30 03:25:48;;;;;;;14.93;13.05;;;9.40;99.90;;;;;;4981959;28;20209;-76
2023/04/30 03:28:14;;;;;;;13.90;12.50;;;9.40;99.90;;;;;;5023455;23;20224;-81
2023/04/30 03:30:40;;;;;;;17.75;13.02;;;9.40;99.90;;;;;;5042047;28;20181;-81
2023/04/30 03:33:06;;;;;;;17.35;13.70;;;9.30;99.90;;;;;;5024762;28;20196;-81
2023/04/30 03:35:32;;;;;;;14.07;12.47;;;9.30;99.90;;;;;;5051020;28;20536;-81
2023/04/30 03:37:59;;;;;;;18.05;13.18;;;9.30;99.90;;;;;;5053034;28;20640;-81
2023/04/30 03:40:25;;;;;;;15.52;12.98;;;9.20;99.90;;;;;;5034263;28;20177;-81
2023/04/30 03:42:50;;;;;;;14.30;12.90;;;9.20;99.90;;;;;;5035416;28;20175;-81
2023/04/30 03:45:16;;;;;;;12.83;11.53;;;9.20;99.90;;;;;;5051197;28;20218;-81
2023/04/30 03:47:42;;;;;;;14.80;12.07;;;9.20;99.90;;;;;;5050620;28;20196;-82
2023/04/30 03:50:09;;;;;;;15.60;12.93;;;9.10;99.90;;;;;;5050511;28;20251;-82
2023/04/30 03:52:35;;;;;;;14.15;12.70;;;9.10;99.90;;;;;;5050826;28;20586;-81
2023/04/30 03:55:02;;;;;;;13.82;11.73;;;9.10;99.90;;;;;;5017642;28;20509;-81
2023/04/30 03:57:28;;;;;;;16.40;11.98;;;9.10;99.90;;;;;;5035594;28;20227;-81
2023/04/30 03:59:55;;;;;;;13.27;11.98;;;9.10;99.90;;;;;;5040508;28;20196;-81
2023/04/30 04:02:21;;;;;;;13.50;11.70;;;9.10;99.90;;;;;;5045956;28;20481;-81
2023/04/30 04:04:47;;;;;;;13.38;11.25;;;9.10;99.90;;;;;;5033984;28;20917;-80
2023/04/30 04:07:13;;;;;;;10.97;9.67;;;9.10;99.90;;;;;;5033320;28;20172;-80
2023/04/30 04:09:39;;;;;;;13.07;11.20;;;9.10;99.90;;;;;;5050627;28;20196;-80
2023/04/30 04:12:06;;;;;;;12.02;10.82;;;9.00;99.90;;;;;;5050131;28;20295;-80
2023/04/30 04:14:32;;;;;;;13.53;12.13;;;9.00;99.90;;;;;;5021490;28;20267;-80
2023/04/30 04:16:58;;;;;;;12.93;11.48;;;9.00;99.90;;;;;;5030004;28;20592;-80
2023/04/30 04:19:25;;;;;;;12.30;11.10;;;9.00;99.90;;;;;;5013655;28;20640;-81
2023/04/30 04:21:51;;;;;;;14.95;10.98;;;9.00;99.90;;;;;;5013380;28;20600;-80
2023/04/30 04:24:17;;;;;;;12.50;10.53;;;9.00;99.90;;;;;;5030029;28;20174;-80
2023/04/30 04:26:42;;;;;;;13.80;10.80;;;9.00;99.90;;;;;;5030112;28;20699;-81
2023/04/30 04:29:09;;;;;;;13.27;10.80;;;9.00;99.90;;;;;;5031018;28;20201;-81
2023/04/30 04:31:37;;;;;;;11.70;10.38;;;9.00;99.90;;;;;;5013968;28;20272;-81
2023/04/30 04:34:04;;;;;;;12.68;10.52;;;9.00;99.90;;;;;;5030573;28;20182;-81
2023/04/30 04:36:32;;;;;;;12.57;11.27;;;9.10;99.90;;;;;;5018191;28;20189;-80
2023/04/30 04:39:02;;;;;;;10.50;9.45;;;9.00;99.90;;;;;;5029448;28;20221;-81
2023/04/30 04:41:29;;;;;;;11.27;9.98;;;9.10;99.90;;;;;;5029722;28;20175;-80
2023/04/30 04:43:58;;;;;;;10.85;9.75;;;9.00;99.90;;;;;;5013176;28;20173;-82
2023/04/30 04:46:25;;;;;;;11.18;10.13;;;9.00;99.90;;;;;;5013070;28;20637;-83
2023/04/30 04:48:52;;;;;;;12.23;10.93;;;9.00;99.90;;;;;;5029303;28;20241;-83
2023/04/30 04:51:17;;;;;;;11.52;10.40;;;9.10;99.90;;;;;;5029671;28;20181;-83
2023/04/30 04:53:43;;;;;;;12.73;10.90;;;9.10;99.90;;;;;;5031536;28;20177;-83
2023/04/30 04:56:09;;;;;;;13.67;10.87;;;9.20;99.90;;;;;;5029470;28;20180;-83
2023/04/30 04:58:35;;;;;;;11.30;10.17;;;9.20;99.90;;;;;;5029592;28;20606;-83
2023/04/30 05:01:01;;;;;;;12.13;10.90;;;9.20;99.90;;;;;;5029460;28;20585;-83
2023/04/30 05:03:29;;;;;;;10.98;9.48;;;9.30;99.90;;;;;;5013114;28;20223;-83
2023/04/30 05:05:55;;;;;;;13.43;12.10;;;9.30;99.90;;;;;;5029161;28;20170;-82
2023/04/30 05:08:21;;;;;;;12.50;11.30;;;9.40;99.90;;;;;;5013336;28;20201;-83
2023/04/30 05:10:47;;;;;;;11.25;10.05;;;9.40;99.90;;;;;;5030734;28;20620;-81
2023/04/30 05:13:13;;;;;;;14.13;12.67;;;9.50;99.90;;;;;;5003153;28;20634;-82
2023/04/30 05:15:39;;;;;;;11.70;10.50;;;9.60;99.90;;;;;;5029367;28;20638;-81
2023/04/30 05:18:04;;;;;;;11.50;10.10;;;9.60;99.90;;;;;;5029538;28;20213;-81
2023/04/30 05:20:30;;;;;;;10.90;9.80;;;9.70;99.90;;;;;;5030415;28;20655;-81
2023/04/30 05:22:56;;;;;;;11.37;10.27;;;9.80;99.90;;;;;;5030406;28;20528;-81
2023/04/30 05:25:21;;;;;;;12.47;10.90;;;9.90;99.90;;;;;;5029614;28;20635;-81
2023/04/30 05:27:47;;;;;;;12.10;10.80;;;10.00;99.90;;;;;;5030023;28;20335;-81
2023/04/30 05:30:14;;;;;;;11.33;10.23;;;10.10;99.90;;;;;;5030947;28;20660;-81
2023/04/30 05:32:40;;;;;;;15.23;11.13;;;10.20;99.90;;;;;;5029099;28;20166;-81
2023/04/30 05:35:07;;;;;;;11.88;10.68;;;10.30;99.90;;;;;;5029512;28;20176;-82
2023/04/30 05:37:32;;;;;;;11.90;10.70;;;10.40;99.90;;;;;;5028330;28;20176;-81
2023/04/30 05:39:58;;;;;;;10.77;9.67;;;10.50;99.90;;;;;;5029273;28;20194;-82
2023/04/30 05:42:24;;;;;;;12.90;10.83;;;10.60;99.90;;;;;;5028994;28;20173;-81
2023/04/30 05:44:50;;;;;;;11.83;9.67;;;10.70;99.90;;;;;;5032743;28;20580;-81
2023/04/30 05:47:15;;;;;;;12.03;10.80;;;10.80;99.90;;;;;;5032703;28;20177;-81
2023/04/30 05:49:41;;;;;;;10.87;9.83;;;10.90;99.90;;;;;;5038307;28;20220;-80
2023/04/30 05:52:07;;;;;;;12.10;10.90;;;11.00;99.90;;;;;;5032535;28;20179;-80
2023/04/30 05:54:33;;;;;;;12.30;11.00;;;11.10;99.90;;;;;;5032365;28;20174;-79
2023/04/30 05:56:59;;;;;;;14.13;11.03;;;11.30;99.90;;;;;;5033836;28;20178;-80
2023/04/30 05:59:24;;;;;;;10.73;9.63;;;11.40;99.90;;;;;;5033092;28;20639;-80
2023/04/30 06:01:51;;;;;;;15.20;11.43;;;11.50;99.90;;;;;;5032780;28;20208;-74
2023/04/30 06:04:16;;;;;;;13.82;12.38;;;11.70;99.90;;;;;;5056212;28;20580;-74
2023/04/30 06:06:42;;;;;;;12.33;11.10;;;11.80;99.90;;;;;;5032300;28;20181;-74
2023/04/30 06:09:09;;;;;;;11.80;10.60;;;11.90;99.90;;;;;;5042597;28;20228;-80
2023/04/30 06:11:36;;;;;;;12.52;11.32;;;12.10;99.90;;;;;;5041011;28;20235;-80
2023/04/30 06:14:03;;;;;;;13.77;12.00;;;12.20;99.90;;;;;;5032567;28;20174;-80
2023/04/30 06:16:29;;;;;;;12.98;11.68;;;12.50;99.90;;;;;;5032914;28;20185;-80
2023/04/30 06:18:54;;;;;;;12.60;11.40;;;13.10;99.90;;;;;;5038825;28;20239;-79
2023/04/30 06:21:20;;;;;;;11.47;10.20;;;13.90;99.90;;;;;;5041063;28;20616;-80
2023/04/30 06:23:46;;;;;;;11.97;10.00;;;14.80;99.90;;;;;;5033400;28;20174;-74
2023/04/30 06:26:13;;;;;;;12.00;10.90;;;16.00;99.90;;;;;;4998930;28;20539;-74
2023/04/30 06:28:40;;;;;;;11.10;10.10;;;17.20;99.90;;;;;;5033481;28;20308;-77
2023/04/30 06:31:05;;;;;;;11.70;10.60;;;18.50;99.90;;;;;;5015685;28;20643;-77
2023/04/30 06:33:31;;;;;;;10.33;9.43;;;19.70;99.90;;;;;;5031956;28;20616;-77
2023/04/30 06:35:57;;;;;;;7.13;6.43;;;20.90;99.90;;;;;;5032150;28;20188;-77
2023/04/30 06:38:22;;;;;;;8.17;7.47;;;22.00;99.90;;;;;;5031554;28;20205;-77
2023/04/30 06:40:48;;;;;;;8.40;7.60;;;23.00;99.90;;;;;;5015635;28;20385;-77
2023/04/30 06:43:14;;;;;;;7.93;7.23;;;24.00;99.90;;;;;;5031217;28;20178;-77
2023/04/30 06:45:40;;;;;;;7.87;7.07;;;24.90;99.90;;;;;;5031817;28;20276;-76
2023/04/30 06:48:06;;;;;;;7.47;6.77;;;25.60;99.90;;;;;;5031454;28;20721;-76
2023/04/30 06:50:31;;;;;;;6.93;6.10;;;26.30;99.90;;;;;;5032034;28;20184;-76
2023/04/30 06:52:57;;;;;;;7.73;7.03;;;27.10;99.90;;;;;;5031789;28;20177;-76
2023/04/30 06:55:23;;;;;;;7.30;6.50;;;27.70;99.90;;;;;;5030661;28;20304;-76
2023/04/30 06:57:49;;;;;;;7.13;6.53;;;28.30;99.90;;;;;;5032222;28;20570;-80
2023/04/30 07:00:15;;;;;;;7.60;6.30;;;29.00;99.90;;;;;;5015159;28;20603;-79
2023/04/30 07:02:41;;;;;;;6.10;5.60;;;29.60;99.90;;;;;;5036443;28;20277;-80
2023/04/30 07:05:07;;;;;;;7.67;6.27;;;30.20;99.90;;;;;;5039088;28;20614;-80
2023/04/30 07:07:33;;;;;;;6.50;6.00;;;30.50;99.90;;;;;;5015704;28;20260;-81
2023/04/30 07:09:59;;;;;;;5.73;5.20;;;30.80;99.90;;;;;;5014960;28;20692;-80
2023/04/30 07:12:25;;;;;;;6.07;5.47;;;31.10;99.90;;;;;;5031882;28;20674;-80
2023/04/30 07:14:51;;;;;;;6.93;6.27;;;31.30;99.90;;;;;;5031592;28;20177;-80
2023/04/30 07:17:17;;;;;;;5.97;5.37;;;31.70;99.90;;;;;;5032254;28;20227;-80
2023/04/30 07:19:42;;;;;;;6.07;5.53;;;32.10;99.90;;;;;;5031707;28;20309;-81
2023/04/30 07:22:08;;;;;;;5.40;4.90;;;32.30;98.80;;;;;;5030764;28;20174;-80
2023/04/30 07:24:34;;;;;;;5.60;5.10;;;32.70;97.20;;;;;;5031414;28;20272;-80
2023/04/30 07:27:02;;;;;;;6.70;6.10;;;32.90;96.20;;;;;;5030995;28;20576;-80
2023/04/30 07:29:28;;;;;;;5.90;5.40;;;33.10;94.40;;;;;;5031544;28;20209;-82
2023/04/30 07:31:55;;;;;;;6.23;4.80;;;33.30;93.40;;;;;;5030865;28;20929;-81
2023/04/30 07:34:21;;;;;;;5.57;5.07;;;33.50;91.20;;;;;;5033108;28;20559;-83
2023/04/30 07:36:47;;;;;;;5.20;4.70;;;33.40;89.10;;;;;;5031435;28;20916;-84
2023/04/30 07:39:13;;;;;;;5.60;5.10;;;33.60;88.50;;;;;;4998098;28;20649;-84
2023/04/30 07:41:39;;;;;;;5.70;4.40;;;33.60;86.30;;;;;;5035596;28;20573;-82
2023/04/30 07:44:05;;;;;;;5.17;4.53;;;33.80;85.10;;;;;;5030546;28;20580;-82
2023/04/30 07:46:31;;;;;;;4.83;4.40;;;34.00;84.10;;;;;;5032665;28;20173;-81
2023/04/30 07:48:57;;;;;;;4.97;3.90;;;34.30;82.80;;;;;;5015170;28;20201;-81
2023/04/30 07:51:23;;;;;;;5.97;5.10;;;34.60;81.10;;;;;;5033619;28;20256;-82
2023/04/30 07:53:48;;;;;;;9.80;4.33;;;34.90;79.30;;;;;;4998922;28;20977;-82
2023/04/30 07:56:14;;;;;;;4.77;4.37;;;35.20;78.20;;;;;;5032375;28;20200;-81
2023/04/30 07:58:40;;;;;;;5.70;5.20;;;35.40;75.50;;;;;;5039822;28;20215;-81
2023/04/30 08:01:06;;;;;;;5.20;4.50;;;35.30;72.40;;;;;;5032422;28;21211;-81
2023/04/30 08:03:32;;;;;;;4.50;4.10;;;35.40;71.50;;;;;;5038360;28;20181;-82
2023/04/30 08:05:58;;;;;;;4.40;3.60;;;35.60;71.40;;;;;;5047530;28;20580;-82
2023/04/30 08:08:23;;;;;;;4.43;4.03;;;35.70;68.70;;;;;;5049801;28;20220;-82
2023/04/30 08:10:49;;;;;;;5.93;5.30;;;35.70;67.00;;;;;;5042872;28;20194;-81
2023/04/30 08:13:15;;;;;;;5.80;5.30;;;35.80;65.20;;;;;;5030040;28;20183;-81
2023/04/30 08:15:41;;;;;;;4.10;3.70;;;35.80;60.40;;;;;;5049312;28;20584;-81
2023/04/30 08:18:08;;;;;;;5.20;4.37;;;35.80;61.30;;;;;;5052171;28;20202;-80
2023/04/30 08:20:33;;;;;;;4.00;3.70;;;35.80;59.40;;;;;;5047493;28;20197;-82
2023/04/30 08:22:59;;;;;;;4.20;3.80;;;35.80;59.70;;;;;;5049010;28;20934;-82
2023/04/30 08:25:25;;;;;;;4.90;4.07;;;35.80;57.80;;;;;;5051567;28;20260;-82
2023/04/30 08:27:51;;;;;;;4.80;4.13;;;35.60;57.70;;;;;;5052062;28;20189;-82
2023/04/30 08:30:17;;;;;;;4.37;3.57;;;35.70;57.40;;;;;;5051196;28;20180;-83
2023/04/30 08:32:43;;;;;;;5.00;3.77;;;35.80;56.70;;;;;;5034912;28;20170;-83
2023/04/30 08:35:09;;;;;;;3.27;2.97;;;35.80;56.10;;;;;;5052313;28;20576;-81
2023/04/30 08:37:34;;;;;;;2.83;2.57;;;35.90;56.10;;;;;;5038197;28;20184;-83
2023/04/30 08:40:00;;;;;;;4.27;3.70;;;36.10;55.30;;;;;;5041346;28;20627;-83
2023/04/30 08:42:39;;;;;;;4.60;3.77;;;36.10;54.80;;;;;;5043718;28;20166;-83
2023/04/30 08:45:10;;;;;;;3.80;3.17;;;36.20;54.10;;;;;;5030757;28;21325;-83
2023/04/30 08:47:37;;;;;;;4.17;3.40;;;36.40;54.00;;;;;;5013433;28;20630;-81
2023/04/30 08:50:04;;;;;;;3.77;2.87;;;36.50;53.40;;;;;;5013282;28;20581;-82
2023/04/30 08:52:34;;;;;;;2.50;2.30;;;36.60;53.10;;;;;;5029940;28;20588;-83
2023/04/30 08:55:01;;;;;;;3.73;2.60;;;36.60;51.70;;;;;;5036719;28;20599;-83
2023/04/30 08:57:27;;;;;;;3.87;2.40;;;36.70;51.20;;;;;;5030656;28;20633;-82
2023/04/30 08:59:55;;;;;;;3.53;3.23;;;36.90;51.50;;;;;;5029956;28;20627;-82
2023/04/30 09:02:21;;;;;;;2.33;2.13;;;37.00;49.30;;;;;;5030615;28;20161;-81
2023/04/30 09:04:47;;;;;;;3.40;2.83;;;36.90;49.60;;;;;;5029932;28;20596;-84
2023/04/30 09:07:14;;;;;;;3.80;3.47;;;36.80;49.40;;;;;;5025751;28;20206;-82
2023/04/30 09:09:40;;;;;;;3.33;2.93;;;36.80;46.80;;;;;;5009982;28;20601;-82
2023/04/30 09:12:13;;;;;;;2.63;1.40;;;36.50;47.80;;;;;;5009295;28;20581;-83
2023/04/30 09:14:40;;;;;;;2.40;1.60;;;36.40;46.70;;;;;;5022957;28;20170;-82
2023/04/30 09:17:07;;;;;;;2.40;1.20;;;36.40;47.70;;;;;;5011416;28;20604;-82
2023/04/30 09:19:34;;;;;;;1.80;1.13;;;36.50;47.50;;;;;;5031277;28;20654;-82
2023/04/30 09:22:18;;;;;;;3.20;1.70;;;36.60;47.20;;;;;;5032391;28;21166;-82
2023/04/30 09:24:49;;;;;;;3.00;1.80;;;36.70;45.30;;;;;;5035101;28;20667;-83
2023/04/30 09:27:20;;;;;;;1.70;1.10;;;36.70;45.70;;;;;;5016921;28;20576;-83
2023/04/30 09:29:46;;;;;;;3.00;1.40;;;36.80;45.40;;;;;;5033366;28;20604;-83
2023/04/30 09:32:12;;;;;;;2.67;1.60;;;36.40;42.10;;;;;;5033543;28;20595;-83
2023/04/30 09:34:39;;;;;;;1.80;1.10;;;36.20;44.30;;;;;;5016677;28;20577;-83
2023/04/30 09:37:06;;;;;;;1.80;1.40;;;36.20;44.90;;;;;;5033153;28;20588;-82
2023/04/30 09:39:32;;;;;;;2.50;1.40;;;36.40;44.80;;;;;;5032802;28;21154;-82
2023/04/30 09:42:10;;;;;;;2.87;1.13;;;36.40;43.50;;;;;;5033192;28;20581;-82
2023/04/30 09:44:38;;;;;;;1.77;1.10;;;36.40;43.50;;;;;;5034090;28;20659;-82
2023/04/30 09:47:04;;;;;;;1.90;1.60;;;36.40;43.80;;;;;;5033514;28;20898;-83
2023/04/30 09:49:30;;;;;;;3.00;1.60;;;36.50;44.00;;;;;;5016524;28;20619;-82
2023/04/30 09:51:58;;;;;;;2.50;1.50;;;36.70;43.50;;;;;;5034594;28;20608;-83
2023/04/30 09:54:29;;;;;;;2.73;1.30;;;36.70;43.40;;;;;;5034511;28;20184;-82
2023/04/30 09:56:57;;;;;;;2.67;1.10;;;36.80;43.30;;;;;;5042490;28;20575;-83
2023/04/30 09:59:29;;;;;;;1.83;0.97;;;36.90;43.10;;;;;;5035346;28;20738;-83
2023/04/30 10:01:58;;;;;;;2.30;1.00;;;36.80;42.00;;;;;;5053877;28;21026;-81
2023/04/30 10:04:25;;;;;;;1.97;0.90;;;36.40;41.60;;;;;;5053203;28;20584;-82
2023/04/30 10:06:53;;;;;;;2.33;1.00;;;36.10;41.70;;;;;;5035282;28;20584;-82
2023/04/30 10:09:20;;;;;;;1.47;0.77;;;35.90;41.10;;;;;;5033091;28;20604;-82
2023/04/30 10:11:47;;;;;;;1.90;1.03;;;35.70;42.10;;;;;;5015798;28;20753;-81
2023/04/30 10:14:16;;;;;;;1.60;0.90;;;35.70;42.40;;;;;;5032849;28;20592;-82
2023/04/30 10:16:59;;;;;;;2.40;1.03;;;35.90;42.90;;;;;;5031901;28;20580;-83
2023/04/30 10:19:30;;;;;;;1.83;0.80;;;36.00;41.00;;;;;;5033904;28;20670;-82
2023/04/30 10:21:57;;;;;;;1.40;0.67;;;36.10;41.10;;;;;;5032113;28;20726;-82
2023/04/30 10:24:22;;;;;;;2.03;0.80;;;36.10;41.10;;;;;;5035215;28;20679;-82
2023/04/30 10:26:49;;;;;;;1.50;0.70;;;36.00;40.80;;;;;;5018744;28;20176;-82
2023/04/30 10:29:16;;;;;;;1.33;0.60;;;36.00;41.10;;;;;;5032718;28;20638;-82
2023/04/30 10:31:45;;;;;;;1.93;0.70;;;35.90;40.10;;;;;;5031527;28;20580;-82
2023/04/30 10:34:16;;;;;;;1.37;0.67;;;35.40;38.70;;;;;;5032676;28;21230;-82
2023/04/30 10:36:47;;;;;;;1.20;0.50;;;34.60;37.60;;;;;;5032588;28;21143;-82
2023/04/30 10:39:18;;;;;;;1.20;0.50;;;34.10;39.30;;;;;;5033359;28;20642;-82
2023/04/30 10:41:47;;;;;;;1.40;0.57;;;33.70;39.60;;;;;;5032406;28;20602;-82
2023/04/30 10:44:14;;;;;;;1.70;0.60;;;33.40;39.80;;;;;;5032310;28;20588;-82
2023/04/30 10:46:40;;;;;;;1.30;0.60;;;33.30;40.40;;;;;;5032215;28;20567;-82
2023/04/30 10:49:07;;;;;;;1.30;0.50;;;33.20;40.70;;;;;;5031086;28;20640;-82
2023/04/30 10:51:46;;;;;;;1.50;0.57;;;33.20;41.00;;;;;;5015497;28;21004;-82
2023/04/30 10:54:16;;;;;;;1.20;0.47;;;32.90;39.00;;;;;;5015306;28;20630;-82
2023/04/30 10:56:45;;;;;;;1.50;0.60;;;32.70;40.10;;;;;;5031777;28;20599;-83
2023/04/30 10:59:11;;;;;;;1.33;0.50;;;32.60;40.50;;;;;;5032746;28;21023;-82
2023/04/30 11:01:57;;;;;;;1.53;0.50;;;32.70;41.10;;;;;;5031755;28;20591;-82
2023/04/30 11:04:23;;;;;;;1.30;0.50;;;32.80;40.70;;;;;;5031346;28;20590;-83
2023/04/30 11:07:09;;;;;;;1.30;0.50;;;32.90;41.10;;;;;;5031801;28;20672;-82
2023/04/30 11:09:41;;;;;;;3.47;0.50;;;32.80;40.30;;;;;;5014874;28;20266;-83
2023/04/30 11:12:11;;;;;;;1.43;0.50;;;32.50;39.90;;;;;;5015364;28;20640;-82
2023/04/30 11:14:42;;;;;;;1.50;0.50;;;32.20;40.00;;;;;;5015121;28;20610;-77
2023/04/30 11:17:20;;;;;;;1.20;0.50;;;31.80;39.30;;;;;;5031059;28;20589;-77
2023/04/30 11:19:47;;;;;;;1.80;0.70;;;31.30;39.20;;;;;;5015041;28;20646;-77
2023/04/30 11:22:24;;;;;;;1.70;0.87;;;30.80;39.70;;;;;;5030615;28;20576;-77
2023/04/30 11:24:58;;;;;;;1.40;0.60;;;30.20;39.10;;;;;;5031736;28;21133;-77
2023/04/30 11:27:26;;;;;;;1.30;0.60;;;29.60;40.00;;;;;;5031724;28;20963;-77
2023/04/30 11:29:53;;;;;;;1.50;0.60;;;29.20;40.40;;;;;;5031807;28;20585;-77
2023/04/30 11:32:20;;;;;;;2.53;0.60;;;28.80;40.70;;;;;;5014335;28;20580;-77
2023/04/30 11:34:46;;;;;;;1.60;0.57;;;28.40;40.70;;;;;;5032498;28;20580;-77
2023/04/30 11:37:34;;;;;;;1.50;0.60;;;27.90;40.70;;;;;;5014249;28;20588;-77
2023/04/30 11:40:06;;;;;;;1.30;0.60;;;27.80;41.70;;;;;;5031078;28;20967;-77
2023/04/30 11:42:35;;;;;;;4.73;0.50;;;27.90;42.20;;;;;;5030131;28;20581;-77
2023/04/30 11:45:07;;;;;;;1.40;0.60;;;28.10;42.70;;;;;;5030782;28;21230;-78
2023/04/30 11:47:50;;;;;;;1.30;0.60;;;28.10;42.50;;;;;;5013859;28;20666;-78
2023/04/30 11:50:18;;;;;;;1.50;0.60;;;28.00;42.10;;;;;;5031081;28;20590;-78
2023/04/30 11:52:54;;;;;;;1.93;0.60;;;27.90;42.00;;;;;;5013735;28;20597;-77
2023/04/30 11:55:21;;;;;;;1.43;0.60;;;27.50;41.70;;;;;;5014473;28;20757;-77
2023/04/30 11:57:49;;;;;;;1.30;0.50;;;27.20;41.80;;;;;;5013703;28;20608;-77
2023/04/30 12:00:17;;;;;;;1.50;0.50;;;27.00;42.20;;;;;;5030250;28;20673;-77
2023/04/30 12:02:47;;;;;;;1.93;0.50;;;26.90;42.90;;;;;;5031067;28;20596;-76
2023/04/30 12:05:17;;;;;;;1.93;0.60;;;26.90;43.90;;;;;;5013754;28;20586;-75
2023/04/30 12:07:58;;;;;;;1.40;0.60;;;27.20;44.30;;;;;;5030618;28;20632;-76
2023/04/30 12:10:24;;;;;;;1.20;0.40;;;27.30;43.70;;;;;;5030856;28;20668;-75
2023/04/30 12:12:51;;;;;;;1.67;0.50;;;27.50;44.50;;;;;;5030397;28;21161;-75
2023/04/30 12:15:22;;;;;;;1.40;0.50;;;27.60;44.40;;;;;;5029796;28;20592;-76
2023/04/30 12:17:48;;;;;;;1.40;0.60;;;27.80;44.60;;;;;;5013735;28;20608;-76
2023/04/30 12:20:14;;;;;;;1.50;0.50;;;28.00;44.50;;;;;;5030000;28;21218;-75
2023/04/30 12:22:44;;;;;;;1.40;0.63;;;27.90;44.00;;;;;;5013285;28;20592;-76
2023/04/30 12:25:21;;;;;;;1.20;0.40;;;27.90;43.60;;;;;;5029836;28;20608;-76
2023/04/30 12:27:52;;;;;;;1.20;0.50;;;28.00;42.90;;;;;;5029645;28;20639;-73
2023/04/30 12:30:20;;;;;;;1.20;0.50;;;28.10;44.50;;;;;;5031381;28;20570;-73
2023/04/30 12:32:49;;;;;;;1.60;0.50;;;28.10;43.90;;;;;;5034436;28;20964;-73
2023/04/30 12:35:20;;;;;;;2.83;0.50;;;28.10;43.00;;;;;;5029725;28;20591;-73
2023/04/30 12:37:51;;;;;;;1.70;0.60;;;27.90;42.60;;;;;;5032658;28;20609;-73
2023/04/30 12:40:18;;;;;;;1.40;0.50;;;27.60;42.30;;;;;;5039669;28;20699;-73
2023/04/30 12:42:45;;;;;;;1.20;0.50;;;27.30;42.30;;;;;;5034936;28;20607;-73